createdAt,value
2022-08-20T00:01:10.443Z,15.62
2022-08-20T00:03:40.384Z,15.63
2022-08-20T00:06:18.619Z,15.64
2022-08-20T00:08:46.658Z,15.61
2022-08-20T00:11:18.441Z,15.61
2022-08-20T00:13:52.609Z,15.60
2022-08-20T00:16:23.212Z,15.60
2022-08-20T00:18:51.221Z,15.61
2022-08-20T00:21:20.057Z,15.63
2022-08-20T00:23:49.360Z,15.64
2022-08-20T00:26:17.062Z,15.67
2022-08-20T00:28:43.840Z,15.68
2022-08-20T00:31:18.258Z,15.70
2022-08-20T00:33:45.769Z,15.70
2022-08-20T00:36:15.746Z,15.67
2022-08-20T00:38:44.660Z,15.66
2022-08-20T00:41:14.899Z,15.63
2022-08-20T00:43:51.236Z,15.60
2022-08-20T00:46:31.028Z,15.58
2022-08-20T00:49:00.040Z,15.56
2022-08-20T00:51:35.078Z,15.52
2022-08-20T00:54:11.302Z,15.51
2022-08-20T00:56:39.110Z,15.50
2022-08-20T00:59:12.743Z,15.49
2022-08-20T01:01:55.058Z,15.50
2022-08-20T01:04:25.305Z,15.49
2022-08-20T01:06:52.300Z,15.49
2022-08-20T01:09:49.803Z,15.49
2022-08-20T01:12:08.168Z,15.51
2022-08-20T01:14:34.954Z,15.50
2022-08-20T01:17:07.893Z,15.51
2022-08-20T01:19:49.447Z,15.51
2022-08-20T01:22:43.978Z,15.51
2022-08-20T01:25:20.482Z,15.51
2022-08-20T01:27:55.167Z,15.49
2022-08-20T01:30:27.823Z,15.49
2022-08-20T01:32:55.143Z,15.50
2022-08-20T01:35:24.441Z,15.51
2022-08-20T01:37:51.253Z,15.55
2022-08-20T01:40:42.069Z,15.58
2022-08-20T01:43:09.731Z,15.63
2022-08-20T01:45:37.129Z,15.69
2022-08-20T01:48:07.004Z,15.73
2022-08-20T01:50:37.067Z,15.77
2022-08-20T01:53:17.075Z,15.79
2022-08-20T01:55:44.246Z,15.81
2022-08-20T01:58:11.234Z,15.83
2022-08-20T02:00:38.217Z,15.83
2022-08-20T02:03:05.246Z,15.84
2022-08-20T02:05:33.553Z,15.84
2022-08-20T02:08:02.185Z,15.84
2022-08-20T02:10:31.895Z,15.87
2022-08-20T02:13:00.375Z,15.87
2022-08-20T02:15:34.760Z,15.86
2022-08-20T02:18:08.121Z,15.86
2022-08-20T02:20:36.163Z,15.86
2022-08-20T02:23:04.134Z,15.87
2022-08-20T02:25:33.832Z,15.88
2022-08-20T02:28:06.896Z,15.89
2022-08-20T02:30:38.249Z,15.91
2022-08-20T02:33:07.995Z,15.90
2022-08-20T02:35:35.558Z,15.89
2022-08-20T02:38:04.955Z,15.91
2022-08-20T02:40:33.264Z,15.91
2022-08-20T02:43:01.912Z,15.91
2022-08-20T02:45:30.834Z,15.91
2022-08-20T02:47:59.160Z,15.90
2022-08-20T02:50:26.626Z,15.92
2022-08-20T02:52:53.705Z,15.91
2022-08-20T02:55:27.497Z,15.89
2022-08-20T02:57:58.605Z,15.87
2022-08-20T03:02:54.241Z,15.81
2022-08-20T03:05:21.183Z,15.76
2022-08-20T03:07:51.680Z,15.73
2022-08-20T03:10:18.572Z,15.76
2022-08-20T03:12:46.584Z,15.75
2022-08-20T03:15:17.478Z,15.74
2022-08-20T03:17:45.614Z,15.73
2022-08-20T03:20:14.354Z,15.72
2022-08-20T03:22:41.105Z,15.70
2022-08-20T03:25:08.260Z,15.66
2022-08-20T03:27:36.429Z,15.66
2022-08-20T03:30:06.340Z,15.64
2022-08-20T03:32:37.701Z,15.64
2022-08-20T03:35:06.700Z,15.64
2022-08-20T03:37:35.256Z,15.64
2022-08-20T03:40:04.615Z,15.64
2022-08-20T03:42:32.942Z,15.65
2022-08-20T03:45:00.944Z,15.67
2022-08-20T03:47:28.101Z,15.68
2022-08-20T03:50:02.229Z,15.67
2022-08-20T03:52:29.542Z,15.66
2022-08-20T03:54:57.115Z,15.63
2022-08-20T03:57:24.635Z,15.62
2022-08-20T03:59:54.896Z,15.62
2022-08-20T04:02:28.276Z,15.63
2022-08-20T04:04:55.294Z,15.61
2022-08-20T04:07:25.990Z,15.62
2022-08-20T04:09:55.006Z,15.59
2022-08-20T04:12:24.349Z,15.56
2022-08-20T04:14:52.208Z,15.55
2022-08-20T04:17:20.192Z,15.53
2022-08-20T04:19:48.371Z,15.52
2022-08-20T04:22:16.437Z,15.49
2022-08-20T04:24:43.497Z,15.49
2022-08-20T04:27:11.069Z,15.47
2022-08-20T04:29:43.205Z,15.43
2022-08-20T04:32:10.084Z,15.40
2022-08-20T04:34:37.065Z,15.38
2022-08-20T04:37:04.513Z,15.37
2022-08-20T04:39:31.532Z,15.36
2022-08-20T04:41:58.448Z,15.36
2022-08-20T04:44:25.251Z,15.35
2022-08-20T04:46:51.985Z,15.34
2022-08-20T04:49:20.713Z,15.33
2022-08-20T04:51:48.491Z,15.32
2022-08-20T04:54:15.211Z,15.32
2022-08-20T04:56:42.037Z,15.30
2022-08-20T04:59:08.796Z,15.32
2022-08-20T05:01:35.857Z,15.30
2022-08-20T05:04:02.985Z,15.28
2022-08-20T05:06:31.933Z,15.28
2022-08-20T05:09:00.678Z,15.25
2022-08-20T05:11:33.182Z,15.23
2022-08-20T05:14:02.526Z,15.23
2022-08-20T05:16:29.706Z,15.20
2022-08-20T05:18:56.441Z,15.19
2022-08-20T05:21:23.281Z,15.19
2022-08-20T05:23:50.033Z,15.20
2022-08-20T05:26:18.771Z,15.20
2022-08-20T05:28:54.076Z,15.21
2022-08-20T05:31:32.115Z,15.22
2022-08-20T05:34:18.096Z,15.25
2022-08-20T05:36:49.159Z,15.23
2022-08-20T05:39:17.210Z,15.24
2022-08-20T05:41:43.947Z,15.25
2022-08-20T05:44:13.504Z,15.27
2022-08-20T05:46:42.012Z,15.31
2022-08-20T05:49:10.711Z,15.31
2022-08-20T05:51:38.050Z,15.33
2022-08-20T05:54:06.081Z,15.35
2022-08-20T05:56:34.016Z,15.37
2022-08-20T05:59:04.888Z,15.37
2022-08-20T06:01:33.909Z,15.38
2022-08-20T06:04:20.178Z,15.41
2022-08-20T06:06:47.744Z,15.44
2022-08-20T06:09:30.753Z,15.47
2022-08-20T06:12:03.888Z,15.51
2022-08-20T06:14:32.052Z,15.54
2022-08-20T06:17:06.748Z,15.54
2022-08-20T06:19:35.435Z,15.54
2022-08-20T06:22:08.679Z,15.56
2022-08-20T06:24:44.835Z,15.58
2022-08-20T06:27:15.284Z,15.61
2022-08-20T06:29:42.303Z,15.64
2022-08-20T06:32:09.755Z,15.65
2022-08-20T06:34:36.823Z,15.67
2022-08-20T06:37:14.802Z,15.70
2022-08-20T06:39:41.895Z,15.71
2022-08-20T06:42:08.732Z,15.74
2022-08-20T06:44:36.977Z,15.76
2022-08-20T06:47:05.130Z,15.79
2022-08-20T06:49:36.069Z,15.80
2022-08-20T06:52:05.188Z,15.83
2022-08-20T06:54:34.370Z,15.84
2022-08-20T06:57:02.591Z,15.84
2022-08-20T06:59:29.357Z,15.86
2022-08-20T07:01:56.650Z,15.86
2022-08-20T07:04:26.012Z,15.84
2022-08-20T07:06:54.269Z,15.85
2022-08-20T07:09:21.822Z,15.83
2022-08-20T07:11:49.451Z,15.84
2022-08-20T07:14:18.469Z,15.85
2022-08-20T07:16:47.346Z,15.84
2022-08-20T07:19:15.177Z,15.84
2022-08-20T07:21:42.279Z,15.89
2022-08-20T07:24:10.135Z,15.94
2022-08-20T07:26:36.952Z,15.97
2022-08-20T07:29:04.186Z,16.01
2022-08-20T07:31:49.839Z,16.04
2022-08-20T07:34:16.891Z,16.09
2022-08-20T07:36:48.494Z,16.17
2022-08-20T07:39:15.338Z,16.19
2022-08-20T07:41:43.544Z,16.15
2022-08-20T07:44:17.523Z,16.11
2022-08-20T07:46:45.335Z,16.08
2022-08-20T07:49:12.114Z,16.03
2022-08-20T07:51:40.588Z,16.03
2022-08-20T07:54:07.409Z,16.00
2022-08-20T07:56:34.637Z,15.98
2022-08-20T07:59:03.340Z,15.98
2022-08-20T08:01:32.229Z,15.97
2022-08-20T08:04:00.199Z,16.00
2022-08-20T08:06:30.142Z,16.12
2022-08-20T08:09:09.883Z,16.34
2022-08-20T08:11:39.867Z,16.59
2022-08-20T08:14:09.905Z,16.87
2022-08-20T08:16:37.648Z,17.21
2022-08-20T08:19:08.940Z,17.53
2022-08-20T08:21:36.727Z,17.78
2022-08-20T08:24:03.891Z,17.99
2022-08-20T08:26:30.776Z,18.16
2022-08-20T08:28:58.458Z,18.55
2022-08-20T08:31:25.992Z,18.88
2022-08-20T08:33:53.100Z,18.96
2022-08-20T08:36:19.928Z,18.97
2022-08-20T08:38:46.914Z,19.33
2022-08-20T08:41:20.926Z,19.94
2022-08-20T08:43:50.612Z,20.83
2022-08-20T08:46:22.739Z,21.43
2022-08-20T08:48:53.620Z,21.89
2022-08-20T08:51:59.031Z,22.41
2022-08-20T08:54:29.829Z,22.62
2022-08-20T08:56:57.479Z,22.61
2022-08-20T08:59:52.387Z,22.81
2022-08-20T09:02:23.062Z,22.79
2022-08-20T09:04:51.724Z,22.93
2022-08-20T09:07:18.516Z,22.63
2022-08-20T09:09:46.907Z,22.58
2022-08-20T09:12:19.117Z,22.62
2022-08-20T09:14:48.171Z,22.71
2022-08-20T09:17:16.309Z,22.52
2022-08-20T09:19:43.141Z,22.52
2022-08-20T09:22:12.042Z,23.32
2022-08-20T09:24:39.336Z,23.19
2022-08-20T09:27:09.275Z,22.47
2022-08-20T09:29:36.424Z,22.34
2022-08-20T09:32:09.181Z,22.33
2022-08-20T09:34:38.160Z,21.99
2022-08-20T09:37:05.459Z,21.63
2022-08-20T09:39:32.482Z,21.59
2022-08-20T09:42:17.113Z,21.59
2022-08-20T09:44:44.711Z,21.35
2022-08-20T09:47:11.855Z,21.18
2022-08-20T09:49:39.469Z,21.07
2022-08-20T09:52:10.935Z,21.07
2022-08-20T09:54:39.999Z,20.91
2022-08-20T09:57:15.004Z,20.67
2022-08-20T09:59:42.038Z,20.48
2022-08-20T10:02:09.105Z,20.26
2022-08-20T10:04:35.899Z,20.02
2022-08-20T10:07:07.857Z,19.87
2022-08-20T10:09:36.227Z,19.99
2022-08-20T10:12:03.992Z,19.99
2022-08-20T10:14:31.366Z,20.17
2022-08-20T10:17:00.749Z,20.26
2022-08-20T10:19:28.425Z,20.57
2022-08-20T10:21:55.344Z,21.69
2022-08-20T10:24:22.944Z,22.04
2022-08-20T10:26:50.355Z,21.73
2022-08-20T10:29:17.404Z,21.50
2022-08-20T10:31:44.261Z,21.20
2022-08-20T10:34:11.049Z,21.03
2022-08-20T10:36:38.260Z,20.82
2022-08-20T10:39:05.040Z,20.63
2022-08-20T10:41:31.874Z,20.44
2022-08-20T10:43:58.648Z,20.30
2022-08-20T10:46:25.375Z,20.54
2022-08-20T10:48:52.479Z,21.05
2022-08-20T10:51:19.261Z,21.12
2022-08-20T10:53:47.584Z,21.72
2022-08-20T10:56:15.776Z,22.26
2022-08-20T10:58:42.746Z,22.11
2022-08-20T11:01:11.422Z,21.72
2022-08-20T11:03:38.338Z,21.40
2022-08-20T11:06:06.606Z,21.28
2022-08-20T11:08:36.137Z,21.48
2022-08-20T11:11:04.438Z,21.61
2022-08-20T11:13:31.415Z,21.42
2022-08-20T11:15:58.201Z,21.17
2022-08-20T11:18:24.992Z,21.05
2022-08-20T11:20:52.390Z,21.12
2022-08-20T11:23:19.348Z,21.32
2022-08-20T11:25:46.335Z,21.59
2022-08-20T11:28:13.285Z,21.77
2022-08-20T11:30:40.118Z,21.73
2022-08-20T11:33:07.467Z,21.65
2022-08-20T11:35:49.228Z,21.52
2022-08-20T11:38:17.142Z,21.45
2022-08-20T11:40:43.916Z,21.60
2022-08-20T11:43:15.527Z,21.67
2022-08-20T11:45:47.721Z,21.63
2022-08-20T11:48:14.863Z,21.59
2022-08-20T11:50:41.743Z,21.52
2022-08-20T11:53:08.626Z,21.38
2022-08-20T11:55:36.800Z,21.27
2022-08-20T11:58:03.933Z,21.26
2022-08-20T12:00:33.972Z,21.41
2022-08-20T12:03:05.193Z,21.76
2022-08-20T12:05:32.747Z,21.92
2022-08-20T12:08:02.499Z,21.94
2022-08-20T12:10:30.689Z,21.85
2022-08-20T12:12:57.924Z,21.86
2022-08-20T12:15:26.843Z,21.91
2022-08-20T12:17:54.912Z,22.02
2022-08-20T12:20:23.346Z,22.18
2022-08-20T12:22:50.756Z,22.38
2022-08-20T12:25:17.896Z,22.50
2022-08-20T12:27:46.323Z,22.53
2022-08-20T12:30:18.187Z,22.69
2022-08-20T12:32:45.013Z,22.96
2022-08-20T12:35:13.067Z,23.15
2022-08-20T12:37:40.799Z,23.15
2022-08-20T12:40:11.663Z,23.09
2022-08-20T12:42:38.793Z,23.16
2022-08-20T12:45:06.669Z,23.11
2022-08-20T12:47:36.012Z,23.20
2022-08-20T12:50:25.202Z,23.38
2022-08-20T12:52:54.376Z,23.33
2022-08-20T12:55:21.371Z,23.19
2022-08-20T12:57:57.376Z,23.13
2022-08-20T13:00:27.858Z,23.07
2022-08-20T13:02:58.815Z,22.95
2022-08-20T13:05:26.840Z,23.01
2022-08-20T13:07:54.619Z,23.12
2022-08-20T13:10:25.467Z,23.13
2022-08-20T13:12:52.600Z,23.03
2022-08-20T13:15:23.180Z,22.94
2022-08-20T13:17:59.788Z,22.90
2022-08-20T13:20:31.749Z,22.95
2022-08-20T13:23:03.120Z,22.90
2022-08-20T13:25:30.965Z,22.98
2022-08-20T13:28:00.368Z,23.07
2022-08-20T13:30:27.608Z,23.08
2022-08-20T13:32:54.766Z,23.13
2022-08-20T13:35:22.048Z,23.36
2022-08-20T13:37:51.392Z,23.54
2022-08-20T13:40:19.066Z,23.58
2022-08-20T13:42:46.783Z,23.47
2022-08-20T13:45:14.137Z,23.40
2022-08-20T13:47:42.611Z,23.37
2022-08-20T13:50:15.912Z,23.44
2022-08-20T13:52:43.307Z,23.50
2022-08-20T13:55:13.138Z,23.77
2022-08-20T13:57:41.042Z,24.05
2022-08-20T14:00:12.792Z,24.19
2022-08-20T14:02:42.950Z,24.09
2022-08-20T14:05:10.993Z,23.93
2022-08-20T14:07:39.348Z,23.76
2022-08-20T14:10:11.242Z,23.63
2022-08-20T14:12:38.084Z,23.54
2022-08-20T14:15:05.971Z,23.57
2022-08-20T14:17:36.255Z,23.57
2022-08-20T14:20:13.737Z,23.48
2022-08-20T14:22:42.196Z,23.33
2022-08-20T14:25:13.010Z,23.17
2022-08-20T14:27:40.186Z,22.97
2022-08-20T14:30:11.066Z,22.82
2022-08-20T14:32:37.971Z,22.69
2022-08-20T14:35:05.552Z,22.56
2022-08-20T14:37:39.329Z,22.70
2022-08-20T14:40:09.467Z,23.17
2022-08-20T14:42:36.904Z,23.55
2022-08-20T14:45:06.527Z,23.69
2022-08-20T14:47:45.601Z,23.99
2022-08-20T14:50:18.959Z,23.96
2022-08-20T14:52:45.762Z,23.74
2022-08-20T14:55:17.464Z,23.71
2022-08-20T14:57:45.456Z,23.72
2022-08-20T15:00:18.887Z,23.94
2022-08-20T15:02:47.174Z,24.35
2022-08-20T15:05:15.071Z,24.61
2022-08-20T15:07:44.533Z,24.90
2022-08-20T15:10:35.981Z,24.95
2022-08-20T15:13:02.880Z,24.90
2022-08-20T15:15:29.977Z,24.91
2022-08-20T15:18:00.330Z,25.02
2022-08-20T15:20:31.173Z,25.04
2022-08-20T15:22:58.902Z,24.97
2022-08-20T15:25:36.075Z,25.00
2022-08-20T15:28:06.337Z,25.10
2022-08-20T15:30:33.513Z,24.94
2022-08-20T15:33:00.646Z,24.85
2022-08-20T15:35:28.644Z,24.74
2022-08-20T15:37:57.579Z,24.86
2022-08-20T15:40:28.555Z,24.91
2022-08-20T15:43:00.355Z,24.62
2022-08-20T15:45:27.121Z,24.21
2022-08-20T15:48:16.767Z,23.94
2022-08-20T15:51:09.856Z,23.62
2022-08-20T15:53:58.930Z,23.33
2022-08-20T15:57:01.484Z,23.16
2022-08-20T15:59:34.341Z,23.44
2022-08-20T16:02:28.924Z,23.70
2022-08-20T16:05:52.880Z,23.94
2022-08-20T16:08:58.344Z,24.09
2022-08-20T16:11:39.489Z,24.07
2022-08-20T16:14:29.373Z,23.97
2022-08-20T16:17:05.767Z,23.77
2022-08-20T16:19:56.767Z,23.68
2022-08-20T16:22:24.981Z,23.37
2022-08-20T16:24:51.765Z,23.07
2022-08-20T16:27:24.688Z,22.81
2022-08-20T16:30:03.046Z,22.74
2022-08-20T16:32:48.942Z,22.83
2022-08-20T16:35:34.380Z,22.61
2022-08-20T16:38:14.244Z,22.48
2022-08-20T16:41:01.720Z,22.16
2022-08-20T16:43:40.791Z,21.89
2022-08-20T16:46:33.177Z,21.77
2022-08-20T16:49:11.618Z,21.70
2022-08-20T16:51:53.596Z,21.57
2022-08-20T16:54:28.249Z,21.45
2022-08-20T16:57:06.471Z,21.46
2022-08-20T16:59:34.787Z,21.41
2022-08-20T17:02:10.056Z,21.18
2022-08-20T17:04:50.412Z,21.00
2022-08-20T17:07:46.135Z,20.90
2022-08-20T17:10:30.234Z,20.87
2022-08-20T17:13:14.150Z,20.84
2022-08-20T17:15:43.915Z,20.71
2022-08-20T17:18:38.425Z,20.75
2022-08-20T17:21:14.551Z,20.78
2022-08-20T17:23:56.389Z,20.86
2022-08-20T17:26:43.236Z,20.80
2022-08-20T17:29:23.687Z,20.61
2022-08-20T17:31:57.593Z,20.53
2022-08-20T17:34:33.401Z,20.47
2022-08-20T17:37:10.471Z,20.56
2022-08-20T17:39:49.822Z,20.37
2022-08-20T17:42:22.367Z,20.13
2022-08-20T17:44:56.029Z,19.96
2022-08-20T17:47:39.046Z,19.75
2022-08-20T17:50:19.913Z,19.50
2022-08-20T17:52:57.862Z,19.21
2022-08-20T17:55:26.496Z,19.04
2022-08-20T17:57:58.035Z,18.88
2022-08-20T18:00:28.441Z,18.73
2022-08-20T18:03:06.358Z,18.66
2022-08-20T18:05:35.798Z,18.57
2022-08-20T18:08:03.040Z,18.50
2022-08-20T18:10:34.351Z,18.43
2022-08-20T18:13:27.755Z,18.46
2022-08-20T18:15:58.049Z,18.41
2022-08-20T18:18:34.849Z,18.48
2022-08-20T18:21:20.289Z,18.50
2022-08-20T18:24:01.411Z,18.53
2022-08-20T18:26:45.096Z,18.53
2022-08-20T18:29:16.603Z,18.42
2022-08-20T18:31:51.873Z,18.31
2022-08-20T18:34:35.596Z,18.27
2022-08-20T18:37:21.415Z,18.29
2022-08-20T18:39:50.092Z,18.19
2022-08-20T18:42:34.257Z,18.13
2022-08-20T18:45:02.895Z,18.07
2022-08-20T18:47:41.814Z,17.97
2022-08-20T18:50:42.555Z,17.96
2022-08-20T18:53:19.943Z,17.90
2022-08-20T18:56:00.218Z,17.91
2022-08-20T18:59:09.475Z,17.93
2022-08-20T19:01:38.016Z,17.91
2022-08-20T19:04:20.509Z,17.79
2022-08-20T19:06:57.745Z,17.63
2022-08-20T19:10:12.935Z,17.59
2022-08-20T19:13:16.089Z,17.57
2022-08-20T19:15:50.899Z,17.51
2022-08-20T19:18:37.982Z,17.46
2022-08-20T19:21:05.997Z,17.40
2022-08-20T19:23:49.307Z,17.47
2022-08-20T19:26:25.298Z,17.52
2022-08-20T19:29:15.251Z,17.53
2022-08-20T19:31:42.539Z,17.51
2022-08-20T19:34:20.259Z,17.47
2022-08-20T19:37:35.571Z,17.47
2022-08-20T19:39:58.349Z,17.47
2022-08-20T19:42:33.388Z,17.51
2022-08-20T19:45:07.729Z,17.54
2022-08-20T19:47:40.932Z,17.56
2022-08-20T19:50:39.061Z,17.60
2022-08-20T19:53:30.778Z,17.57
2022-08-20T19:56:04.042Z,17.52
2022-08-20T19:58:32.690Z,17.49
2022-08-20T20:01:03.100Z,17.50
2022-08-20T20:03:33.913Z,17.44
2022-08-20T20:06:16.615Z,17.41
2022-08-20T20:09:04.164Z,17.41
2022-08-20T20:11:37.516Z,17.39
2022-08-20T20:14:07.874Z,17.39
2022-08-20T20:16:36.426Z,17.36
2022-08-20T20:19:25.233Z,17.34
2022-08-20T20:22:05.913Z,17.30
2022-08-20T20:24:45.109Z,17.29
2022-08-20T20:27:24.403Z,17.22
2022-08-20T20:29:59.181Z,17.19
2022-08-20T20:32:26.721Z,17.15
2022-08-20T20:34:58.335Z,17.11
2022-08-20T20:37:49.813Z,17.12
2022-08-20T20:40:20.621Z,17.08
2022-08-20T20:42:59.160Z,17.06
2022-08-20T20:45:32.784Z,17.10
2022-08-20T20:47:59.719Z,17.07
2022-08-20T20:50:34.666Z,17.02
2022-08-20T20:53:01.860Z,16.94
2022-08-20T20:55:34.623Z,16.93
2022-08-20T20:58:02.724Z,16.92
2022-08-20T21:00:34.142Z,16.94
2022-08-20T21:03:02.616Z,16.94
2022-08-20T21:05:30.865Z,16.90
2022-08-20T21:08:03.909Z,16.89
2022-08-20T21:10:33.162Z,16.93
2022-08-20T21:13:00.998Z,16.88
2022-08-20T21:15:28.194Z,16.86
2022-08-20T21:17:59.384Z,16.81
2022-08-20T21:20:26.649Z,16.73
2022-08-20T21:22:53.860Z,16.68
2022-08-20T21:25:21.128Z,16.64
2022-08-20T21:27:50.476Z,16.67
2022-08-20T21:30:19.047Z,16.70
2022-08-20T21:32:46.070Z,16.69
2022-08-20T21:35:13.153Z,16.65
2022-08-20T21:37:39.896Z,16.58
2022-08-20T21:40:09.489Z,16.53
2022-08-20T21:42:39.987Z,16.49
2022-08-20T21:45:10.031Z,16.47
2022-08-20T21:47:36.768Z,16.46
2022-08-20T21:50:05.009Z,16.44
2022-08-20T21:52:31.963Z,16.43
2022-08-20T21:55:02.299Z,16.47
2022-08-20T21:57:33.172Z,16.52
2022-08-20T22:00:03.474Z,16.54
2022-08-20T22:02:30.521Z,16.52
2022-08-20T22:04:57.304Z,16.49
2022-08-20T22:07:24.205Z,16.43
2022-08-20T22:09:51.111Z,16.37
2022-08-20T22:12:20.630Z,16.35
2022-08-20T22:14:48.080Z,16.39
2022-08-20T22:17:15.562Z,16.38
2022-08-20T22:19:42.441Z,16.32
2022-08-20T22:22:11.000Z,16.30
2022-08-20T22:24:38.283Z,16.28
2022-08-20T22:27:06.810Z,16.28
2022-08-20T22:29:34.741Z,16.26
2022-08-20T22:32:02.129Z,16.29
2022-08-20T22:34:31.394Z,16.20
2022-08-20T22:36:59.645Z,16.19
2022-08-20T22:39:27.269Z,16.12
2022-08-20T22:41:54.259Z,16.12
2022-08-20T22:44:21.220Z,15.98
2022-08-20T22:46:52.615Z,15.89
2022-08-20T22:49:27.047Z,15.83
2022-08-20T22:51:54.262Z,15.75
2022-08-20T22:54:24.647Z,15.73
2022-08-20T22:56:53.604Z,15.69
2022-08-20T22:59:21.496Z,15.65
2022-08-20T23:01:49.984Z,15.54
2022-08-20T23:04:32.730Z,15.45
2022-08-20T23:07:00.960Z,15.40
2022-08-20T23:09:28.375Z,15.38
2022-08-20T23:11:59.630Z,15.38
2022-08-20T23:14:27.159Z,15.35
2022-08-20T23:17:03.018Z,15.29
2022-08-20T23:19:30.281Z,15.27
2022-08-20T23:21:57.151Z,15.24
2022-08-20T23:24:23.973Z,15.16
2022-08-20T23:26:52.774Z,15.13
2022-08-20T23:29:22.547Z,15.11
2022-08-20T23:31:54.336Z,15.03
2022-08-20T23:34:22.485Z,15.06
2022-08-20T23:36:50.586Z,15.04
2022-08-20T23:39:17.595Z,14.99
2022-08-20T23:41:47.559Z,15.00
2022-08-20T23:44:26.243Z,14.93
2022-08-20T23:47:00.632Z,14.92
2022-08-20T23:49:28.090Z,14.91
2022-08-20T23:51:57.793Z,14.87
2022-08-20T23:54:24.586Z,14.82
2022-08-20T23:56:51.433Z,14.81
2022-08-20T23:59:24.214Z,14.80
